Time;durP1;ratioP1;P1;durP2;ratioP2;P2;SDS_P1;SDS_P2;PMS_P1;PMS_P2;Temp;Humidity;BMP_temperature;BMP_pressure;BME280_temperature;BME280_humidity;BME280_pressure;Samples;Min_cycle;Max_cycle;Signal;HPM_P1;HPM_P2
2022/03/22 00:02:23;;;;;;;24.77;12.87;;;;;;;5.84;84.12;102830.38;7385502;19;20427;-53
2022/03/22 00:04:53;;;;;;;21.80;12.20;;;;;;;5.66;83.35;102838.13;7392376;19;20472;-47
2022/03/22 00:07:23;;;;;;;21.73;12.90;;;;;;;5.49;84.20;102834.84;7388336;19;20956;-48
2022/03/22 00:09:55;;;;;;;22.13;12.57;;;;;;;5.44;84.12;102835.16;7392741;19;20402;-49
2022/03/22 00:12:24;;;;;;;19.97;13.10;;;;;;;5.51;86.35;102828.22;7388480;19;20945;-49
2022/03/22 00:14:54;;;;;;;23.70;14.03;;;;;;;5.25;84.74;102828.25;7392117;19;20417;-50
2022/03/22 00:17:43;;;;;;;23.13;13.17;;;;;;;5.27;86.04;102830.22;7387083;19;20468;-51
2022/03/22 00:20:15;;;;;;;73.27;35.33;;;;;;;5.38;90.35;102845.69;7392205;19;20476;-48
2022/03/22 00:22:45;;;;;;;67.93;35.37;;;;;;;5.49;90.40;102839.94;7387931;19;20432;-51
2022/03/22 00:25:18;;;;;;;38.83;20.60;;;;;;;5.70;91.04;102841.88;7391566;19;20758;-50
2022/03/22 00:27:55;;;;;;;27.73;14.33;;;;;;;5.51;87.08;102837.53;7388373;19;20425;-48
2022/03/22 00:30:26;;;;;;;34.10;18.53;;;;;;;5.34;87.57;102838.50;7393282;19;20399;-49
2022/03/22 00:32:57;;;;;;;29.13;15.57;;;;;;;5.31;87.42;102828.84;7388620;19;21156;-50
2022/03/22 00:35:28;;;;;;;21.60;12.33;;;;;;;5.20;86.94;102835.50;7390857;19;20411;-52
2022/03/22 00:38:00;;;;;;;36.07;19.10;;;;;;;5.15;88.10;102829.03;7386593;19;20514;-48
2022/03/22 00:40:33;;;;;;;31.10;15.17;;;;;;;5.11;87.68;102829.47;7391957;19;20910;-52
2022/03/22 00:43:02;;;;;;;26.97;14.37;;;;;;;5.06;87.54;102828.13;7387491;19;20748;-50
2022/03/22 00:45:34;;;;;;;22.20;13.07;;;;;;;4.99;87.33;102832.63;7393001;19;20419;-52
2022/03/22 00:48:05;;;;;;;22.70;12.47;;;;;;;4.93;87.25;102834.59;7388903;19;20438;-49
2022/03/22 00:50:37;;;;;;;21.70;12.70;;;;;;;4.99;87.21;102835.19;7395040;19;20396;-47
2022/03/22 00:53:08;;;;;;;23.73;13.67;;;;;;;4.99;87.04;102830.09;7391707;19;20411;-47
2022/03/22 00:55:40;;;;;;;24.13;13.57;;;;;;;4.99;87.06;102832.63;7394999;19;20782;-50
2022/03/22 00:58:10;;;;;;;20.93;12.37;;;;;;;4.90;87.16;102829.19;7381868;19;20427;-48
2022/03/22 01:00:41;;;;;;;23.73;13.27;;;;;;;4.88;87.43;102832.34;7396346;19;20404;-48
2022/03/22 01:03:11;;;;;;;24.03;12.80;;;;;;;4.83;87.62;102834.47;7390543;19;20734;-53
2022/03/22 01:05:41;;;;;;;19.80;12.47;;;;;;;4.84;87.91;102832.06;7394147;19;20407;-49
2022/03/22 01:08:12;;;;;;;21.70;12.00;;;;;;;4.78;88.03;102838.22;7390728;19;20410;-47
2022/03/22 01:10:52;;;;;;;22.90;13.43;;;;;;;4.80;88.12;102829.03;7399717;19;20944;-48
2022/03/22 01:13:23;;;;;;;21.90;12.60;;;;;;;4.78;88.13;102830.53;7389872;19;20417;-50
2022/03/22 01:15:53;;;;;;;23.30;11.80;;;;;;;4.79;87.97;102829.78;7393978;19;20394;-47
2022/03/22 01:18:25;;;;;;;22.20;12.50;;;;;;;4.78;87.90;102835.66;7387235;19;20431;-46
2022/03/22 01:20:54;;;;;;;29.97;12.97;;;;;;;4.76;88.09;102829.50;7395224;19;20384;-50
2022/03/22 01:23:24;;;;;;;29.53;12.20;;;;;;;4.75;88.17;102828.59;7387755;19;20430;-48
2022/03/22 01:25:56;;;;;;;22.70;12.30;;;;;;;4.75;88.50;102832.78;7393153;19;20407;-51
2022/03/22 01:28:26;;;;;;;21.63;12.23;;;;;;;4.65;88.15;102834.44;7389462;19;20407;-48
2022/03/22 01:30:56;;;;;;;21.70;12.40;;;;;;;4.67;88.53;102838.03;7395981;19;20400;-49
2022/03/22 01:33:26;;;;;;;21.60;13.10;;;;;;;4.75;87.97;102828.59;7391381;19;20400;-46
2022/03/22 01:35:55;;;;;;;23.07;13.00;;;;;;;4.70;88.43;102830.69;7393136;19;20425;-47
2022/03/22 01:38:25;;;;;;;21.63;12.67;;;;;;;4.66;88.36;102823.47;7389804;19;20431;-48
2022/03/22 01:40:57;;;;;;;22.70;13.33;;;;;;;4.57;88.80;102827.69;7395786;19;21009;-52
2022/03/22 01:43:26;;;;;;;31.63;14.00;;;;;;;4.60;88.95;102820.28;7387378;19;20415;-45
2022/03/22 01:45:56;;;;;;;26.73;13.20;;;;;;;4.57;89.16;102823.44;7393637;19;20949;-51
2022/03/22 01:48:25;;;;;;;20.37;12.13;;;;;;;4.57;89.37;102826.00;7389322;19;20431;-47
2022/03/22 01:50:57;;;;;;;26.17;13.07;;;;;;;4.55;89.50;102824.03;7396753;19;20388;-49
2022/03/22 01:53:26;;;;;;;21.53;11.97;;;;;;;4.57;88.84;102820.00;7391760;19;20431;-47
2022/03/22 01:55:58;;;;;;;24.53;12.23;;;;;;;4.52;88.72;102813.53;7394697;19;20415;-46
2022/03/22 01:58:28;;;;;;;19.53;11.43;;;;;;;4.47;89.02;102810.53;7388961;19;20437;-47
2022/03/22 02:05:51;;;;;;;19.30;11.83;;;;;;;4.38;89.29;102805.41;7396162;19;20396;-48
2022/03/22 02:06:42;;;;;;;21.20;12.97;;;;;;;4.46;89.83;102804.50;7387107;19;20395;-52
2022/03/22 02:09:12;;;;;;;20.60;12.23;;;;;;;4.53;89.01;102800.00;7395003;19;20392;-53
2022/03/22 02:11:45;;;;;;;27.63;12.00;;;;;;;4.45;89.14;102802.69;7392261;19;20371;-49
2022/03/22 02:14:14;;;;;;;22.37;12.40;;;;;;;4.48;89.30;102801.19;7400223;19;21238;-49
2022/03/22 02:16:44;;;;;;;19.63;11.80;;;;;;;4.52;89.10;102803.31;7389834;19;20780;-48
2022/03/22 02:19:16;;;;;;;21.47;12.27;;;;;;;4.48;88.80;102802.09;7394807;19;20455;-53
2022/03/22 02:21:47;;;;;;;21.40;12.70;;;;;;;4.51;88.83;102796.38;7387249;19;20423;-54
2022/03/22 02:24:19;;;;;;;21.90;12.57;;;;;;;4.44;89.44;102795.78;7395888;19;20388;-54
2022/03/22 02:26:48;;;;;;;19.67;11.43;;;;;;;4.32;89.70;102798.00;7389262;19;20419;-50
2022/03/22 02:29:18;;;;;;;21.47;11.27;;;;;;;4.27;89.56;102795.75;7395354;19;20392;-55
2022/03/22 02:31:47;;;;;;;24.03;11.37;;;;;;;4.28;89.75;102787.31;7389514;19;20487;-49
2022/03/22 02:34:18;;;;;;;21.10;11.60;;;;;;;4.24;89.86;102782.66;7395748;19;20372;-51
2022/03/22 02:36:48;;;;;;;22.50;12.03;;;;;;;4.22;90.35;102786.72;7388153;19;20419;-54
2022/03/22 02:39:20;;;;;;;25.13;13.00;;;;;;;4.21;90.66;102782.34;7393603;19;20871;-51
2022/03/22 02:41:51;;;;;;;24.40;12.30;;;;;;;4.26;90.63;102787.16;7384570;19;20414;-53
2022/03/22 02:44:21;;;;;;;19.30;11.30;;;;;;;4.27;90.16;102781.31;7399679;19;20392;-53
2022/03/22 02:46:52;;;;;;;22.50;12.50;;;;;;;4.23;90.54;102774.09;7391927;19;20414;-50
2022/03/22 02:49:21;;;;;;;20.50;12.10;;;;;;;4.28;90.47;102783.13;7397898;19;20388;-49
2022/03/22 02:51:51;;;;;;;27.17;13.07;;;;;;;4.29;90.32;102784.00;7394549;19;20408;-50
2022/03/22 02:54:23;;;;;;;26.73;12.30;;;;;;;4.23;90.42;102779.19;7395166;19;20387;-50
2022/03/22 02:56:52;;;;;;;24.47;13.20;;;;;;;4.18;90.56;102777.84;7390030;19;20487;-52
2022/03/22 02:59:22;;;;;;;25.20;13.23;;;;;;;4.22;90.87;102781.59;7393748;19;20387;-51
2022/03/22 03:01:51;;;;;;;24.70;13.20;;;;;;;4.15;90.89;102778.44;7390206;19;20991;-51
2022/03/22 03:04:21;;;;;;;28.23;15.43;;;;;;;4.23;91.60;102781.75;7394844;19;20931;-51
2022/03/22 03:06:50;;;;;;;21.00;12.43;;;;;;;4.21;91.38;102785.81;7390540;19;20938;-58
2022/03/22 03:09:23;;;;;;;21.63;13.50;;;;;;;4.19;91.58;102785.66;7395619;19;20412;-55
2022/03/22 03:11:52;;;;;;;22.33;12.17;;;;;;;4.15;91.80;102791.19;7387310;19;20949;-54
2022/03/22 03:17:03;;;;;;;26.03;13.60;;;;;;;4.09;91.81;102782.91;7388292;19;20425;-48
2022/03/22 03:19:33;;;;;;;21.93;13.03;;;;;;;4.13;92.19;102779.94;7395900;19;20395;-50
2022/03/22 03:22:03;;;;;;;24.60;12.80;;;;;;;4.06;92.50;102780.06;7388245;19;20405;-49
2022/03/22 03:24:35;;;;;;;25.40;13.23;;;;;;;4.07;92.54;102786.06;7394757;19;20408;-52
2022/03/22 03:27:05;;;;;;;23.37;14.33;;;;;;;4.12;92.68;102780.69;7390298;19;20411;-50
2022/03/22 03:29:35;;;;;;;26.20;13.93;;;;;;;4.12;93.30;102785.81;7394170;19;20379;-50
2022/03/22 03:32:04;;;;;;;21.77;13.40;;;;;;;3.90;93.60;102783.63;7390240;19;20418;-54
2022/03/22 03:34:34;;;;;;;24.70;12.67;;;;;;;3.89;93.91;102779.25;7394067;19;20744;-53
2022/03/22 03:37:03;;;;;;;22.40;12.20;;;;;;;3.92;93.95;102787.25;7389729;19;20436;-47
2022/03/22 03:39:38;;;;;;;25.90;15.40;;;;;;;3.92;94.11;102787.25;7392800;19;20893;-52
2022/03/22 03:42:09;;;;;;;25.10;13.60;;;;;;;3.91;94.35;102789.63;7388942;19;20758;-53
2022/03/22 03:47:23;;;;;;;23.70;12.20;;;;;;;3.78;94.44;102795.13;7390301;19;20389;-48
2022/03/22 03:49:54;;;;;;;21.47;11.93;;;;;;;3.73;94.79;102792.13;7393232;19;20384;-53
2022/03/22 03:52:25;;;;;;;20.70;12.17;;;;;;;3.77;94.71;102789.16;7389188;19;20421;-51
2022/03/22 03:54:58;;;;;;;21.30;13.10;;;;;;;3.75;95.16;102794.84;7393191;19;20419;-51
2022/03/22 03:57:28;;;;;;;25.70;13.27;;;;;;;3.68;95.26;102800.06;7389349;19;20823;-51
2022/03/22 03:59:58;;;;;;;24.03;12.60;;;;;;;3.63;95.68;102797.03;7391972;19;20398;-51
2022/03/22 04:02:28;;;;;;;21.83;12.90;;;;;;;3.60;96.17;102792.50;7388060;19;20946;-52
2022/03/22 04:04:57;;;;;;;26.23;13.23;;;;;;;3.57;96.48;102804.97;7392834;19;20498;-53
2022/03/22 04:07:28;;;;;;;23.90;13.47;;;;;;;3.59;97.07;102806.00;7387903;19;20410;-50
2022/03/22 04:10:00;;;;;;;24.00;13.70;;;;;;;3.54;97.03;102802.06;7392695;19;20400;-53
2022/03/22 04:12:31;;;;;;;22.20;12.93;;;;;;;3.54;96.89;102803.75;7387167;19;20438;-50
2022/03/22 04:15:00;;;;;;;23.30;13.07;;;;;;;3.50;97.20;102799.97;7392294;19;20391;-51
2022/03/22 04:17:30;;;;;;;33.13;12.63;;;;;;;3.55;97.61;102803.91;7384798;19;20993;-52
2022/03/22 04:19:59;;;;;;;20.80;12.40;;;;;;;3.51;98.64;102806.88;7391166;19;20931;-50
2022/03/22 04:22:29;;;;;;;25.70;13.80;;;;;;;3.42;98.35;102806.84;7385167;19;20401;-54
2022/03/22 04:25:01;;;;;;;28.17;12.37;;;;;;;3.42;98.62;102804.28;7392606;19;20395;-52
2022/03/22 04:32:56;;;;;;;24.83;12.97;;;;;;;3.47;98.80;102804.75;7396099;19;20926;-51
2022/03/22 04:35:27;;;;;;;23.30;13.77;;;;;;;3.51;98.90;102809.44;7401362;19;20780;-49
2022/03/22 04:37:59;;;;;;;24.20;13.27;;;;;;;3.53;98.54;102814.72;7390714;19;20406;-49
2022/03/22 04:40:31;;;;;;;27.33;15.10;;;;;;;3.46;99.21;102805.50;7398434;19;20390;-48
2022/03/22 04:43:01;;;;;;;27.93;14.03;;;;;;;3.44;99.18;102807.00;7397140;19;20846;-52
2022/03/22 04:45:30;;;;;;;27.83;14.17;;;;;;;3.35;99.84;102810.38;7399168;19;20403;-52
2022/03/22 04:48:00;;;;;;;20.23;12.13;;;;;;;3.36;100.00;102812.22;7393880;19;20388;-51
2022/03/22 04:50:29;;;;;;;23.70;12.60;;;;;;;3.41;100.00;102820.34;7399553;19;20709;-51
2022/03/22 04:58:35;;;;;;;27.33;13.80;;;;;;;3.36;100.00;102812.22;7393172;19;20415;-50
2022/03/22 05:01:06;;;;;;;24.60;14.17;;;;;;;3.30;100.00;102815.75;7397667;19;20391;-51
2022/03/22 05:03:36;;;;;;;22.30;13.23;;;;;;;3.29;100.00;102814.88;7393544;19;20926;-53
2022/03/22 05:08:47;;;;;;;23.17;12.80;;;;;;;3.23;100.00;102819.34;7393665;19;20419;-49
2022/03/22 05:11:19;;;;;;;25.50;13.33;;;;;;;3.24;100.00;102824.56;7401674;19;20752;-53
2022/03/22 05:13:49;;;;;;;24.30;13.87;;;;;;;3.29;100.00;102821.63;7397970;19;20383;-55
2022/03/22 05:16:18;;;;;;;27.97;13.33;;;;;;;3.21;100.00;102825.91;7400472;19;20416;-48
2022/03/22 05:18:48;;;;;;;26.87;14.63;;;;;;;3.23;100.00;102824.44;7394126;19;20797;-49
2022/03/22 05:21:17;;;;;;;20.60;12.47;;;;;;;3.27;100.00;102826.56;7396284;19;20367;-50
2022/03/22 05:23:48;;;;;;;58.03;29.33;;;;;;;3.31;100.00;102831.25;7393746;19;20406;-51
2022/03/22 05:26:20;;;;;;;44.73;22.33;;;;;;;3.24;100.00;102831.34;7395494;19;20438;-53
2022/03/22 05:28:49;;;;;;;33.27;18.20;;;;;;;3.23;100.00;102837.19;7397329;19;20407;-50
2022/03/22 05:31:21;;;;;;;27.73;14.50;;;;;;;3.18;100.00;102836.69;7398198;19;20389;-50
2022/03/22 05:33:52;;;;;;;25.70;14.77;;;;;;;3.16;100.00;102839.81;7397901;19;20426;-51
2022/03/22 05:36:22;;;;;;;25.80;13.17;;;;;;;3.13;100.00;102842.06;7395429;19;20404;-53
2022/03/22 05:38:52;;;;;;;25.70;13.70;;;;;;;3.15;100.00;102841.50;7396064;19;20466;-53
2022/03/22 05:41:25;;;;;;;31.10;15.17;;;;;;;3.18;100.00;102831.59;7396087;19;20364;-55
2022/03/22 05:43:54;;;;;;;23.70;13.53;;;;;;;3.16;100.00;102844.91;7397309;19;20751;-52
2022/03/22 05:46:24;;;;;;;28.60;14.00;;;;;;;3.14;100.00;102844.78;7391597;19;20409;-55
2022/03/22 05:48:54;;;;;;;22.07;12.67;;;;;;;3.12;100.00;102853.91;7391715;19;20404;-51
2022/03/22 05:51:23;;;;;;;24.43;13.20;;;;;;;3.06;100.00;102846.53;7397671;19;20390;-56
2022/03/22 05:53:53;;;;;;;31.53;13.37;;;;;;;3.06;100.00;102856.72;7396820;19;20410;-52
2022/03/22 05:56:25;;;;;;;25.13;14.20;;;;;;;3.08;100.00;102862.00;7394758;19;20779;-53
2022/03/22 05:58:54;;;;;;;21.73;13.47;;;;;;;3.01;100.00;102862.06;7396687;19;20416;-52
2022/03/22 06:01:24;;;;;;;26.07;14.10;;;;;;;3.03;100.00;102858.94;7395711;19;20925;-59
2022/03/22 06:03:54;;;;;;;22.57;12.07;;;;;;;3.01;100.00;102857.88;7392352;19;20411;-50
2022/03/22 06:06:24;;;;;;;23.37;13.27;;;;;;;3.02;100.00;102852.03;7393326;19;20788;-56
2022/03/22 06:08:53;;;;;;;25.23;14.30;;;;;;;3.03;100.00;102853.81;7396398;19;20403;-51
2022/03/22 06:11:25;;;;;;;24.40;13.23;;;;;;;3.03;100.00;102856.38;7396999;19;20394;-50
2022/03/22 06:13:55;;;;;;;23.07;13.80;;;;;;;3.02;100.00;102857.13;7396413;19;20411;-50
2022/03/22 06:16:25;;;;;;;22.40;13.40;;;;;;;3.07;100.00;102853.44;7390289;19;20423;-58
2022/03/22 06:18:55;;;;;;;24.27;13.47;;;;;;;3.09;100.00;102859.56;7395763;19;20451;-53
2022/03/22 06:21:24;;;;;;;22.97;12.93;;;;;;;4.37;100.00;102859.81;7389486;19;20831;-53
2022/03/22 06:23:54;;;;;;;51.00;24.27;;;;;;;4.55;100.00;102860.75;7396299;19;20398;-49
2022/03/22 06:26:27;;;;;;;70.33;35.03;;;;;;;4.25;100.00;102858.59;7392636;19;20419;-56
2022/03/22 06:28:57;;;;;;;67.27;30.07;;;;;;;4.33;100.00;102861.13;7395668;19;20382;-50
2022/03/22 06:31:27;;;;;;;36.00;20.37;;;;;;;4.60;100.00;102866.31;7393293;19;20410;-51
2022/03/22 06:33:56;;;;;;;36.47;18.90;;;;;;;4.66;100.00;102864.38;7396214;19;21085;-51
2022/03/22 06:36:26;;;;;;;32.50;17.70;;;;;;;5.04;100.00;102871.50;7389996;19;20449;-49
2022/03/22 06:38:56;;;;;;;27.73;14.73;;;;;;;4.70;99.92;102871.63;7397790;19;20399;-52
2022/03/22 06:41:28;;;;;;;22.77;13.73;;;;;;;4.97;99.46;102874.22;7389375;19;20391;-49
2022/03/22 06:43:57;;;;;;;30.83;16.50;;;;;;;5.30;98.21;102867.09;7395444;19;20452;-56
2022/03/22 06:46:27;;;;;;;23.23;14.00;;;;;;;5.32;96.46;102871.63;7389042;19;20812;-50
2022/03/22 06:48:56;;;;;;;35.77;18.30;;;;;;;5.60;96.09;102869.19;7392084;19;20391;-49
2022/03/22 06:51:28;;;;;;;24.90;13.80;;;;;;;6.30;94.08;102875.72;7386777;19;20727;-51
2022/03/22 06:53:58;;;;;;;28.67;14.07;;;;;;;6.81;90.16;102869.22;7399005;19;20943;-55
2022/03/22 06:56:31;;;;;;;24.97;13.30;;;;;;;5.86;88.27;102869.84;7387468;19;20864;-52
2022/03/22 06:59:01;;;;;;;24.70;14.97;;;;;;;5.45;89.79;102871.16;7394434;19;20738;-52
2022/03/22 07:01:31;;;;;;;26.67;15.00;;;;;;;5.20;91.25;102876.47;7390593;19;20394;-51
2022/03/22 07:04:01;;;;;;;24.53;14.43;;;;;;;5.14;92.64;102871.63;7394673;19;20391;-52
2022/03/22 07:06:31;;;;;;;39.83;22.63;;;;;;;4.99;94.60;102872.69;7390739;19;20396;-50
2022/03/22 07:09:00;;;;;;;27.67;15.47;;;;;;;5.02;94.19;102870.41;7393974;19;20411;-50
2022/03/22 07:14:14;;;;;;;26.13;15.60;;;;;;;5.33;93.44;102873.41;7394138;19;20405;-50
2022/03/22 07:16:44;;;;;;;27.10;15.30;;;;;;;5.34;93.16;102871.78;7393581;19;20410;-53
2022/03/22 07:19:14;;;;;;;33.40;15.27;;;;;;;5.14;93.37;102878.41;7394041;19;20395;-46
2022/03/22 07:21:44;;;;;;;25.03;14.90;;;;;;;5.20;93.58;102879.03;7389308;19;20384;-52
2022/03/22 07:24:15;;;;;;;25.10;14.93;;;;;;;5.22;94.25;102890.31;7394050;19;20915;-52
2022/03/22 07:26:47;;;;;;;29.27;14.67;;;;;;;5.22;94.71;102887.75;7387210;19;20415;-51
2022/03/22 07:29:17;;;;;;;28.93;15.47;;;;;;;5.23;94.47;102893.78;7393463;19;20392;-51
2022/03/22 07:31:46;;;;;;;28.43;16.00;;;;;;;5.34;94.54;102887.13;7390557;19;20470;-55
2022/03/22 07:34:17;;;;;;;30.37;15.00;;;;;;;5.44;94.21;102886.38;7393653;19;20376;-51
2022/03/22 07:36:52;;;;;;;33.03;16.23;;;;;;;5.51;94.14;102894.81;7387818;19;20411;-52
2022/03/22 07:39:22;;;;;;;25.17;14.87;;;;;;;5.56;93.58;102894.31;7393036;19;20459;-56
2022/03/22 07:41:54;;;;;;;25.40;15.40;;;;;;;5.59;93.79;102897.19;7387645;19;20417;-55
2022/03/22 07:44:24;;;;;;;25.10;15.50;;;;;;;5.66;93.58;102897.03;7393327;19;20387;-53
2022/03/22 07:46:54;;;;;;;28.63;16.13;;;;;;;5.74;92.21;102892.66;7387800;19;20426;-52
2022/03/22 07:54:48;;;;;;;27.00;15.70;;;;;;;6.14;92.05;102885.28;7392971;19;20412;-51
2022/03/22 07:57:20;;;;;;;30.70;15.63;;;;;;;6.16;91.92;102891.47;7388729;19;20426;-52
2022/03/22 07:59:49;;;;;;;28.70;16.10;;;;;;;6.23;91.99;102893.84;7392191;19;20390;-50
2022/03/22 08:02:19;;;;;;;92.53;44.33;;;;;;;6.32;93.56;102892.13;7385910;19;20424;-47
2022/03/22 08:04:49;;;;;;;40.40;22.00;;;;;;;6.49;92.20;102905.63;7391124;19;20447;-53
2022/03/22 08:07:19;;;;;;;40.47;20.23;;;;;;;6.62;91.38;102903.44;7389017;19;20420;-49
2022/03/22 08:09:49;;;;;;;32.00;19.43;;;;;;;6.66;91.74;102898.59;7395339;19;20402;-50
2022/03/22 08:12:24;;;;;;;33.30;18.50;;;;;;;6.73;91.35;102901.84;7383957;19;20485;-49
2022/03/22 08:14:53;;;;;;;30.30;18.23;;;;;;;6.84;90.32;102904.50;7392119;19;20410;-50
2022/03/22 08:17:23;;;;;;;30.37;16.80;;;;;;;6.89;89.02;102903.28;7388722;19;20417;-47
2022/03/22 08:19:53;;;;;;;29.67;15.97;;;;;;;7.02;87.44;102905.28;7392291;19;20398;-50
2022/03/22 08:22:23;;;;;;;32.13;15.63;;;;;;;7.18;86.45;102914.38;7387684;19;20432;-52
2022/03/22 08:24:52;;;;;;;29.77;15.60;;;;;;;7.28;85.99;102902.50;7391834;19;20435;-51
2022/03/22 08:27:25;;;;;;;29.67;16.50;;;;;;;7.36;85.99;102898.06;7385763;19;20415;-55
2022/03/22 08:29:54;;;;;;;32.80;15.97;;;;;;;7.47;86.49;102906.72;7391829;19;20377;-48
2022/03/22 08:32:24;;;;;;;27.77;16.63;;;;;;;7.64;85.72;102903.06;7386482;19;20417;-49
2022/03/22 08:34:55;;;;;;;144.97;60.30;;;;;;;8.39;93.34;102899.16;7391585;19;20419;-47
2022/03/22 08:37:24;;;;;;;46.60;23.30;;;;;;;8.71;87.75;102894.97;7388686;19;20391;-51
2022/03/22 08:39:54;;;;;;;57.37;28.97;;;;;;;8.99;85.53;102898.16;7395940;19;20459;-50
2022/03/22 08:42:26;;;;;;;109.43;55.40;;;;;;;9.66;86.79;102897.44;7388112;19;20411;-47
2022/03/22 08:44:56;;;;;;;39.90;21.93;;;;;;;10.26;84.96;102901.25;7392290;19;20445;-51
2022/03/22 08:47:26;;;;;;;46.87;26.20;;;;;;;10.32;78.83;102896.56;7387680;19;20458;-49
2022/03/22 08:49:56;;;;;;;30.57;17.50;;;;;;;10.11;78.38;102904.41;7390995;19;20395;-48
2022/03/22 08:52:26;;;;;;;50.87;26.07;;;;;;;9.94;80.40;102897.94;7388091;19;20429;-48
2022/03/22 08:54:57;;;;;;;38.47;21.50;;;;;;;10.02;78.73;102901.13;7391042;19;20416;-47
2022/03/22 08:57:30;;;;;;;35.20;20.50;;;;;;;10.13;76.54;102897.72;7380318;19;20423;-55
2022/03/22 08:59:59;;;;;;;34.00;18.27;;;;;;;10.21;76.03;102902.56;7391136;19;20491;-51
2022/03/22 09:02:29;;;;;;;38.30;20.07;;;;;;;10.36;74.82;102903.75;7385370;19;20502;-48
2022/03/22 09:07:40;;;;;;;31.17;17.43;;;;;;;10.64;70.25;102897.25;7388381;19;20423;-52
2022/03/22 09:10:12;;;;;;;28.67;17.77;;;;;;;10.72;70.94;102900.41;7394177;19;20397;-49
2022/03/22 09:12:44;;;;;;;27.20;16.93;;;;;;;10.88;71.57;102905.03;7389917;19;20435;-51
2022/03/22 09:15:14;;;;;;;25.87;16.03;;;;;;;10.59;68.47;102902.06;7397232;19;20411;-52
2022/03/22 09:17:44;;;;;;;34.53;19.77;;;;;;;10.66;70.58;102901.75;7394370;19;20415;-48
2022/03/22 09:20:14;;;;;;;34.10;19.60;;;;;;;10.66;68.50;102908.56;7399087;19;20467;-51
2022/03/22 09:22:46;;;;;;;44.40;25.20;;;;;;;10.68;70.58;102904.44;7393014;19;20443;-47
2022/03/22 09:25:16;;;;;;;57.33;30.07;;;;;;;10.97;68.10;102904.84;7400353;19;20421;-46
2022/03/22 09:27:48;;;;;;;60.30;35.37;;;;;;;11.18;68.07;102900.38;7391962;19;20791;-48
2022/03/22 09:30:18;;;;;;;55.00;27.90;;;;;;;11.10;68.52;102891.13;7396666;19;20393;-47
2022/03/22 09:32:49;;;;;;;35.83;20.90;;;;;;;11.12;66.75;102898.22;7390920;19;20423;-52
2022/03/22 09:35:19;;;;;;;28.83;16.90;;;;;;;11.24;66.39;102889.56;7396190;19;20422;-51
2022/03/22 09:37:50;;;;;;;34.17;19.27;;;;;;;11.25;64.47;102887.09;7392962;19;20939;-53
2022/03/22 09:40:21;;;;;;;35.97;19.80;;;;;;;11.31;65.58;102882.38;7397867;19;20380;-49
2022/03/22 09:42:54;;;;;;;26.67;15.87;;;;;;;11.34;63.83;102873.97;7391425;19;20455;-51
2022/03/22 09:45:27;;;;;;;27.60;17.00;;;;;;;11.21;62.44;102874.72;7396173;19;20425;-48
2022/03/22 09:47:58;;;;;;;31.93;17.90;;;;;;;11.39;66.15;102875.16;7393127;19;20923;-49
2022/03/22 09:51:44;;;;;;;30.07;18.30;;;;;;;11.59;64.80;102873.13;7395658;19;20820;-48
2022/03/22 09:53:19;;;;;;;29.03;16.00;;;;;;;11.55;60.54;102865.94;7392671;19;20859;-47
2022/03/22 09:55:49;;;;;;;32.00;16.23;;;;;;;11.72;63.44;102870.63;7395876;19;20417;-51
2022/03/22 09:58:21;;;;;;;24.83;16.43;;;;;;;12.00;63.72;102869.09;7391674;19;20419;-50
2022/03/22 10:00:50;;;;;;;30.77;19.47;;;;;;;12.16;64.37;102863.31;7396716;19;20733;-50
2022/03/22 10:03:21;;;;;;;35.57;21.17;;;;;;;12.20;63.42;102870.47;7386503;19;20849;-51
2022/03/22 10:06:00;;;;;;;26.20;15.87;;;;;;;12.21;61.80;102861.03;7392169;19;20422;-50
2022/03/22 10:08:30;;;;;;;28.10;16.93;;;;;;;12.22;62.48;102866.31;7389786;19;20443;-49
2022/03/22 10:11:04;;;;;;;34.83;18.20;;;;;;;12.40;63.12;102865.75;7396014;19;20741;-53
2022/03/22 10:13:52;;;;;;;27.73;16.87;;;;;;;12.25;56.85;102863.94;7390167;19;20428;-53
2022/03/22 10:16:21;;;;;;;28.47;15.87;;;;;;;12.47;58.94;102862.81;7392653;19;20413;-54
2022/03/22 10:18:51;;;;;;;25.07;15.90;;;;;;;12.51;55.56;102862.22;7392704;19;20410;-47
2022/03/22 10:21:21;;;;;;;27.10;15.57;;;;;;;12.65;56.71;102864.81;7394470;19;20402;-52
2022/03/22 10:23:52;;;;;;;27.90;15.00;;;;;;;12.73;55.29;102858.50;7392509;19;20438;-49
2022/03/22 10:26:22;;;;;;;28.27;16.90;;;;;;;12.73;54.96;102853.31;7393258;19;20404;-56
2022/03/22 10:28:58;;;;;;;26.47;15.90;;;;;;;12.94;53.94;102856.41;7392300;19;20410;-49
2022/03/22 10:31:34;;;;;;;25.60;16.97;;;;;;;13.01;54.48;102855.09;7391468;19;20384;-52
2022/03/22 10:34:05;;;;;;;37.33;18.23;;;;;;;13.21;56.55;102860.69;7394144;19;20474;-53
2022/03/22 10:36:36;;;;;;;37.10;17.90;;;;;;;13.32;55.93;102844.13;7392148;19;20394;-51
2022/03/22 10:39:07;;;;;;;25.80;16.30;;;;;;;13.39;53.48;102845.44;7393537;19;20395;-53
2022/03/22 10:41:41;;;;;;;29.33;18.27;;;;;;;13.61;55.95;102850.31;7387533;19;20395;-52
2022/03/22 10:44:15;;;;;;;28.00;16.47;;;;;;;13.79;53.91;102852.22;7392912;19;20388;-51
2022/03/22 10:46:45;;;;;;;33.23;18.37;;;;;;;13.95;51.82;102848.00;7390633;19;20847;-50
2022/03/22 10:49:16;;;;;;;25.40;16.30;;;;;;;13.97;52.16;102854.16;7393548;19;20731;-50
2022/03/22 10:52:02;;;;;;;27.30;15.57;;;;;;;14.13;51.72;102853.41;7390749;19;20485;-50
2022/03/22 10:54:33;;;;;;;24.67;15.97;;;;;;;14.30;52.21;102850.13;7396273;19;20607;-51
2022/03/22 10:57:03;;;;;;;26.27;15.53;;;;;;;14.47;54.17;102847.66;7386579;19;20406;-51
2022/03/22 10:59:36;;;;;;;26.87;15.60;;;;;;;14.45;52.04;102851.84;7394776;19;20402;-51
2022/03/22 11:02:06;;;;;;;23.80;15.33;;;;;;;14.42;50.14;102843.88;7387355;19;20399;-49
2022/03/22 11:04:36;;;;;;;33.93;15.43;;;;;;;14.21;49.55;102852.19;7393516;19;20439;-49
2022/03/22 11:07:07;;;;;;;25.40;16.50;;;;;;;14.19;49.60;102851.19;7390706;19;20417;-53
2022/03/22 11:09:36;;;;;;;27.40;16.83;;;;;;;14.48;50.39;102848.53;7398823;19;20434;-48
2022/03/22 11:12:07;;;;;;;29.43;17.10;;;;;;;14.48;47.98;102841.66;7386029;19;20415;-49
2022/03/22 11:14:39;;;;;;;25.60;15.90;;;;;;;14.44;49.05;102847.44;7394239;19;20399;-46
2022/03/22 11:17:09;;;;;;;30.03;15.83;;;;;;;14.62;49.45;102838.94;7390378;19;20395;-54
2022/03/22 11:19:38;;;;;;;27.03;16.80;;;;;;;14.66;49.52;102849.59;7394443;19;20391;-50
2022/03/22 11:22:09;;;;;;;27.27;17.20;;;;;;;14.85;49.57;102840.31;7389433;19;20767;-52
2022/03/22 11:24:39;;;;;;;25.67;16.47;;;;;;;14.83;48.92;102836.75;7393501;19;20406;-51
2022/03/22 11:27:10;;;;;;;24.40;16.03;;;;;;;14.89;50.12;102837.09;7389700;19;20397;-49
2022/03/22 11:29:45;;;;;;;27.77;17.10;;;;;;;15.01;48.74;102838.59;7397540;19;20395;-49
2022/03/22 11:34:57;;;;;;;32.93;18.63;;;;;;;14.84;47.00;102834.22;7391590;19;20414;-47
2022/03/22 11:37:33;;;;;;;26.23;17.00;;;;;;;14.83;47.43;102831.53;7388387;19;20408;-48
2022/03/22 11:42:53;;;;;;;25.93;17.20;;;;;;;15.09;48.92;102819.13;7389320;19;20416;-48
2022/03/22 11:45:26;;;;;;;30.03;16.70;;;;;;;14.90;48.30;102817.16;7391794;19;20429;-51
2022/03/22 11:47:56;;;;;;;26.30;16.70;;;;;;;15.22;50.01;102818.09;7387703;19;20925;-53
2022/03/22 11:50:26;;;;;;;33.87;17.47;;;;;;;15.26;47.71;102814.84;7393235;19;20402;-47
2022/03/22 11:53:00;;;;;;;25.37;14.83;;;;;;;15.37;47.92;102815.44;7384192;19;20397;-51
2022/03/22 11:55:30;;;;;;;26.23;16.23;;;;;;;15.48;47.23;102811.72;7392048;19;20983;-49
2022/03/22 11:58:01;;;;;;;29.07;16.77;;;;;;;15.72;46.82;102810.34;7387525;19;20417;-49
2022/03/22 12:00:47;;;;;;;27.37;18.20;;;;;;;15.61;45.98;102805.47;7393699;19;20391;-54
2022/03/22 12:03:19;;;;;;;27.30;16.67;;;;;;;15.65;48.43;102801.34;7388308;19;20416;-49
2022/03/22 12:05:49;;;;;;;31.37;16.30;;;;;;;15.55;48.28;102801.66;7391729;19;20934;-51
2022/03/22 12:08:19;;;;;;;22.30;14.90;;;;;;;15.84;48.84;102799.72;7386299;19;20498;-52
2022/03/22 12:10:49;;;;;;;20.37;14.50;;;;;;;15.95;48.90;102798.59;7393266;19;20367;-51